createdAt,value
2017-08-03T00:01:44.330Z,10.40
2017-08-03T00:04:12.574Z,10.93
2017-08-03T00:06:41.219Z,11.10
2017-08-03T00:09:09.505Z,11.20
2017-08-03T00:11:37.752Z,10.80
2017-08-03T00:14:06.011Z,11.40
2017-08-03T00:16:35.004Z,11.03
2017-08-03T00:19:03.253Z,10.90
2017-08-03T00:21:31.514Z,10.80
2017-08-03T00:23:59.788Z,11.10
2017-08-03T00:26:28.478Z,11.80
2017-08-03T00:28:56.729Z,10.43
2017-08-03T00:31:24.983Z,10.93
2017-08-03T00:33:53.260Z,10.83
2017-08-03T00:36:21.504Z,11.47
2017-08-03T00:38:50.154Z,11.90
2017-08-03T00:41:18.433Z,11.50
2017-08-03T00:43:46.919Z,12.20
2017-08-03T00:46:15.167Z,11.40
2017-08-03T00:48:43.781Z,12.40
2017-08-03T00:51:12.086Z,11.10
2017-08-03T00:53:40.643Z,11.20
2017-08-03T00:56:08.909Z,10.90
2017-08-03T00:58:37.208Z,11.63
2017-08-03T01:01:05.466Z,10.50
2017-08-03T01:03:34.029Z,12.83
2017-08-03T01:06:02.271Z,11.80
2017-08-03T01:08:30.529Z,11.87
2017-08-03T01:10:59.219Z,10.43
2017-08-03T01:13:27.768Z,11.97
2017-08-03T01:15:56.015Z,11.77
2017-08-03T01:18:24.327Z,11.60
2017-08-03T01:20:52.577Z,11.80
2017-08-03T01:23:20.819Z,12.23
2017-08-03T01:25:49.096Z,12.30
2017-08-03T01:28:17.344Z,12.50
2017-08-03T01:30:46.043Z,12.43
2017-08-03T01:33:14.309Z,12.90
2017-08-03T01:35:42.585Z,13.00
2017-08-03T01:38:11.288Z,12.37
2017-08-03T01:40:39.543Z,13.07
2017-08-03T01:43:08.187Z,12.30
2017-08-03T01:45:36.486Z,12.70
2017-08-03T01:48:04.720Z,11.93
2017-08-03T01:50:32.976Z,13.63
2017-08-03T01:53:01.242Z,14.80
2017-08-03T01:55:29.495Z,13.80
2017-08-03T01:57:57.750Z,14.27
2017-08-03T02:00:26.017Z,13.70
2017-08-03T02:02:54.240Z,13.70
2017-08-03T02:05:22.628Z,14.10
2017-08-03T02:07:50.882Z,11.40
2017-08-03T02:10:19.521Z,13.20
2017-08-03T02:12:47.798Z,12.43
2017-08-03T02:15:16.639Z,13.47
2017-08-03T02:17:44.908Z,13.53
2017-08-03T02:20:13.208Z,13.07
2017-08-03T02:22:42.125Z,12.67
2017-08-03T02:25:10.401Z,13.20
2017-08-03T02:27:38.676Z,13.13
2017-08-03T02:30:06.923Z,13.57
2017-08-03T02:32:35.183Z,11.67
2017-08-03T02:35:03.948Z,13.20
2017-08-03T02:37:32.216Z,13.50
2017-08-03T02:40:00.460Z,11.20
2017-08-03T02:42:28.724Z,13.40
2017-08-03T02:44:57.264Z,12.93
2017-08-03T02:47:25.506Z,13.30
2017-08-03T02:49:53.787Z,14.30
2017-08-03T02:52:22.043Z,12.87
2017-08-03T02:54:50.283Z,13.30
2017-08-03T02:57:18.963Z,13.43
2017-08-03T02:59:47.603Z,13.30
2017-08-03T03:02:15.857Z,13.77
2017-08-03T03:04:44.128Z,14.57
2017-08-03T03:07:12.379Z,13.27
2017-08-03T03:09:40.616Z,9.23
2017-08-03T03:12:08.887Z,9.63
2017-08-03T03:14:37.148Z,10.23
2017-08-03T03:17:05.392Z,9.47
2017-08-03T03:19:33.651Z,8.70
2017-08-03T03:22:01.891Z,10.27
2017-08-03T03:24:30.175Z,14.00
2017-08-03T03:26:58.438Z,12.60
2017-08-03T03:29:26.681Z,12.70
2017-08-03T03:31:54.952Z,8.87
2017-08-03T03:34:23.217Z,9.50
2017-08-03T03:36:51.444Z,12.00
2017-08-03T03:39:19.724Z,11.70
2017-08-03T03:41:47.964Z,12.83
2017-08-03T03:44:16.243Z,11.63
2017-08-03T03:46:44.615Z,12.20
2017-08-03T03:49:13.164Z,11.93
2017-08-03T03:51:41.409Z,12.97
2017-08-03T03:54:09.691Z,12.97
2017-08-03T03:56:37.940Z,13.83
2017-08-03T03:59:06.183Z,13.43
2017-08-03T04:01:34.475Z,13.87
2017-08-03T04:04:02.720Z,13.57
2017-08-03T04:06:30.964Z,13.00
2017-08-03T04:08:59.241Z,9.40
2017-08-03T04:11:27.480Z,13.10
2017-08-03T04:13:55.767Z,39.30
2017-08-03T04:16:24.293Z,12.90
2017-08-03T04:18:52.597Z,14.10
2017-08-03T04:21:21.240Z,12.60
2017-08-03T04:23:49.488Z,13.00
2017-08-03T04:26:17.768Z,12.70
2017-08-03T04:28:46.016Z,12.83
2017-08-03T04:31:14.263Z,10.23
2017-08-03T04:33:42.822Z,9.63
2017-08-03T04:36:11.043Z,9.30
2017-08-03T04:38:39.312Z,11.33
2017-08-03T04:41:07.990Z,12.67
2017-08-03T04:43:36.291Z,12.70
2017-08-03T04:46:04.693Z,13.70
2017-08-03T04:48:33.031Z,13.00
2017-08-03T04:51:01.412Z,12.53
2017-08-03T04:53:30.047Z,13.03
2017-08-03T04:55:58.328Z,12.50
2017-08-03T04:58:26.581Z,12.10
2017-08-03T05:00:54.832Z,12.90
2017-08-03T05:03:23.108Z,13.80
2017-08-03T05:05:51.352Z,12.23
2017-08-03T05:08:19.595Z,14.30
2017-08-03T05:10:47.903Z,13.23
2017-08-03T05:13:16.156Z,15.27
2017-08-03T05:15:44.412Z,14.10
2017-08-03T05:18:12.689Z,14.50
2017-08-03T05:20:41.214Z,15.87
2017-08-03T05:23:09.475Z,14.93
2017-08-03T05:25:40.673Z,14.03
2017-08-03T05:28:09.527Z,15.00
2017-08-03T05:30:37.767Z,14.43
2017-08-03T05:33:06.188Z,15.10
2017-08-03T05:35:34.440Z,13.63
2017-08-03T05:38:02.694Z,13.37
2017-08-03T05:40:30.986Z,14.77
2017-08-03T05:42:59.263Z,14.13
2017-08-03T05:45:27.526Z,14.97
2017-08-03T05:47:55.774Z,13.90
2017-08-03T05:50:24.024Z,13.67
2017-08-03T05:52:52.319Z,13.03
2017-08-03T05:55:20.773Z,13.70
2017-08-03T05:57:49.432Z,14.57
2017-08-03T06:00:17.739Z,15.10
2017-08-03T06:02:50.660Z,12.83
2017-08-03T06:05:19.237Z,13.17
2017-08-03T06:07:47.544Z,14.20
2017-08-03T06:10:15.813Z,13.43
2017-08-03T06:12:44.132Z,12.73
2017-08-03T06:15:12.373Z,12.60
2017-08-03T06:17:40.630Z,11.43
2017-08-03T06:20:09.159Z,12.83
2017-08-03T06:22:37.814Z,13.03
2017-08-03T06:25:06.075Z,11.50
2017-08-03T06:27:34.372Z,11.30
2017-08-03T06:32:37.393Z,11.50
2017-08-03T06:35:05.636Z,10.37
2017-08-03T06:37:33.941Z,10.90
2017-08-03T06:40:02.326Z,10.87
2017-08-03T06:42:30.574Z,10.87
2017-08-03T06:44:58.832Z,10.17
2017-08-03T06:47:27.112Z,9.50
2017-08-03T06:49:55.352Z,14.03
2017-08-03T06:52:23.597Z,13.50
2017-08-03T06:54:51.869Z,12.43
2017-08-03T06:57:20.238Z,10.83
2017-08-03T06:59:48.532Z,9.17
2017-08-03T07:02:16.799Z,10.43
2017-08-03T07:04:45.408Z,9.97
2017-08-03T07:07:13.661Z,12.23
2017-08-03T07:09:41.908Z,10.87
2017-08-03T07:12:10.151Z,11.17
2017-08-03T07:14:39.006Z,13.03
2017-08-03T07:17:07.280Z,12.23
2017-08-03T07:19:35.528Z,12.13
2017-08-03T07:22:03.813Z,12.40
2017-08-03T07:24:32.948Z,11.13
2017-08-03T07:27:01.593Z,11.70
2017-08-03T07:29:29.864Z,11.70
2017-08-03T07:31:58.696Z,12.40
2017-08-03T07:34:27.340Z,10.90
2017-08-03T07:36:55.823Z,12.37
2017-08-03T07:39:24.073Z,11.60
2017-08-03T07:41:52.489Z,11.30
2017-08-03T07:44:20.760Z,12.43
2017-08-03T07:46:49.039Z,10.77
2017-08-03T07:49:17.403Z,11.53
2017-08-03T07:51:45.656Z,12.10
2017-08-03T07:54:13.983Z,12.00
2017-08-03T07:56:42.240Z,11.43
2017-08-03T07:59:11.200Z,10.43
2017-08-03T08:01:39.460Z,10.87
2017-08-03T08:04:07.716Z,10.90
2017-08-03T08:06:35.971Z,10.63
2017-08-03T08:09:04.534Z,9.77
2017-08-03T08:11:32.796Z,10.30
2017-08-03T08:14:01.060Z,10.37
2017-08-03T08:16:29.503Z,9.97
2017-08-03T08:18:57.840Z,8.90
2017-08-03T08:21:27.692Z,10.33
2017-08-03T08:23:56.897Z,9.40
2017-08-03T08:26:26.324Z,9.33
2017-08-03T08:28:54.903Z,9.00
2017-08-03T08:31:23.165Z,8.77
2017-08-03T08:33:52.350Z,8.07
2017-08-03T08:36:21.851Z,7.73
2017-08-03T08:38:50.120Z,9.13
2017-08-03T08:41:19.847Z,9.97
2017-08-03T08:43:48.833Z,8.53
2017-08-03T08:46:17.106Z,7.60
2017-08-03T08:48:45.692Z,7.93
2017-08-03T08:51:14.275Z,9.07
2017-08-03T08:53:43.070Z,8.67
2017-08-03T08:56:11.325Z,8.97
2017-08-03T08:58:39.659Z,9.63
2017-08-03T09:01:07.924Z,9.70
2017-08-03T09:03:36.230Z,10.27
2017-08-03T09:06:04.559Z,9.43
2017-08-03T09:08:33.230Z,9.27
2017-08-03T09:11:01.489Z,9.67
2017-08-03T09:13:29.780Z,9.60
2017-08-03T09:15:58.032Z,8.60
2017-08-03T09:18:26.308Z,8.63
2017-08-03T09:20:54.604Z,8.60
2017-08-03T09:23:23.096Z,8.53
2017-08-03T09:25:51.799Z,8.60
2017-08-03T09:28:20.451Z,8.60
2017-08-03T09:30:49.219Z,8.00
2017-08-03T09:33:17.661Z,8.80
2017-08-03T09:35:46.121Z,9.67
2017-08-03T09:38:14.361Z,9.47
2017-08-03T09:40:43.693Z,9.27
2017-08-03T09:43:12.308Z,9.73
2017-08-03T09:45:40.575Z,9.30
2017-08-03T09:48:08.840Z,9.97
2017-08-03T09:50:37.902Z,10.60
2017-08-03T09:53:06.140Z,10.80
2017-08-03T09:55:34.968Z,11.33
2017-08-03T09:58:03.221Z,12.00
2017-08-03T10:00:31.512Z,12.50
2017-08-03T10:02:59.779Z,11.50
2017-08-03T10:05:28.380Z,11.47
2017-08-03T10:07:56.618Z,12.97
2017-08-03T10:10:24.911Z,12.67
2017-08-03T10:12:53.192Z,12.20
2017-08-03T10:15:21.451Z,13.30
2017-08-03T10:17:49.863Z,13.90
2017-08-03T10:20:19.004Z,14.20
2017-08-03T10:22:48.304Z,14.10
2017-08-03T10:25:16.593Z,12.80
2017-08-03T10:27:45.718Z,14.80
2017-08-03T10:30:13.969Z,13.60
2017-08-03T10:32:43.657Z,13.20
2017-08-03T10:35:11.988Z,14.77
2017-08-03T10:37:41.411Z,13.13
2017-08-03T10:40:09.671Z,12.80
2017-08-03T10:42:38.609Z,13.67
2017-08-03T10:45:06.889Z,13.93
2017-08-03T10:47:35.465Z,11.90
2017-08-03T10:50:03.920Z,11.97
2017-08-03T10:52:33.005Z,11.33
2017-08-03T10:55:01.439Z,11.60
2017-08-03T10:57:29.901Z,11.30
2017-08-03T10:59:58.366Z,10.47
2017-08-03T11:02:27.054Z,10.10
2017-08-03T11:04:56.612Z,10.60
2017-08-03T11:07:24.992Z,10.83
2017-08-03T11:09:54.012Z,10.87
2017-08-03T11:12:22.300Z,10.30
2017-08-03T11:14:50.618Z,9.67
2017-08-03T11:17:18.887Z,9.90
2017-08-03T11:19:47.816Z,9.37
2017-08-03T11:22:16.638Z,9.17
2017-08-03T11:24:44.967Z,8.87
2017-08-03T11:27:13.228Z,9.47
2017-08-03T11:29:41.742Z,8.60
2017-08-03T11:32:09.994Z,8.90
2017-08-03T11:34:38.516Z,8.77
2017-08-03T11:37:07.000Z,9.00
2017-08-03T11:39:35.263Z,8.60
2017-08-03T11:42:03.684Z,8.03
2017-08-03T11:44:31.946Z,9.10
2017-08-03T11:47:00.573Z,8.80
2017-08-03T11:49:28.897Z,8.83
2017-08-03T11:51:57.137Z,9.00
2017-08-03T11:54:25.924Z,8.90
2017-08-03T11:56:54.218Z,8.93
2017-08-03T11:59:22.701Z,8.37
2017-08-03T12:01:50.948Z,9.23
2017-08-03T12:04:19.264Z,8.80
2017-08-03T12:06:47.508Z,8.10
2017-08-03T12:09:15.743Z,7.80
2017-08-03T12:11:44.195Z,8.30
2017-08-03T12:14:12.436Z,8.13
2017-08-03T12:16:40.692Z,8.70
2017-08-03T12:19:09.054Z,8.23
2017-08-03T12:21:37.537Z,8.10
2017-08-03T12:24:05.777Z,8.27
2017-08-03T12:26:34.042Z,8.10
2017-08-03T12:29:02.293Z,8.30
2017-08-03T12:31:30.536Z,8.10
2017-08-03T12:33:58.820Z,9.13
2017-08-03T12:36:27.082Z,8.27
2017-08-03T12:38:55.322Z,7.97
2017-08-03T12:41:23.568Z,8.87
2017-08-03T12:43:51.817Z,8.00
2017-08-03T12:46:20.112Z,8.30
2017-08-03T12:48:48.408Z,7.90
2017-08-03T12:51:16.674Z,8.50
2017-08-03T12:53:45.168Z,8.93
2017-08-03T12:56:13.425Z,8.43
2017-08-03T12:58:41.681Z,9.20
2017-08-03T13:01:10.041Z,8.77
2017-08-03T13:03:38.700Z,9.60
2017-08-03T13:06:07.178Z,8.67
2017-08-03T13:08:35.763Z,9.00
2017-08-03T13:11:04.224Z,9.13
2017-08-03T13:13:32.481Z,8.40
2017-08-03T13:16:00.745Z,8.90
2017-08-03T13:18:29.004Z,9.57
2017-08-03T13:20:57.276Z,9.00
2017-08-03T13:23:26.044Z,8.37
2017-08-03T13:25:54.297Z,8.40
2017-08-03T13:28:22.556Z,8.67
2017-08-03T13:30:50.986Z,8.60
2017-08-03T13:33:19.839Z,8.40
2017-08-03T13:35:48.105Z,8.03
2017-08-03T13:38:16.385Z,8.40
2017-08-03T13:40:44.617Z,8.40
2017-08-03T13:43:12.869Z,7.70
2017-08-03T13:45:41.316Z,8.73
2017-08-03T13:48:09.570Z,8.87
2017-08-03T13:50:37.816Z,8.20
2017-08-03T13:53:06.224Z,8.97
2017-08-03T13:55:34.472Z,8.20
2017-08-03T13:58:03.111Z,9.00
2017-08-03T14:00:31.390Z,8.97
2017-08-03T14:02:59.632Z,8.23
2017-08-03T14:05:27.872Z,8.10
2017-08-03T14:07:56.521Z,9.03
2017-08-03T14:10:24.910Z,7.80
2017-08-03T14:12:53.136Z,8.80
2017-08-03T14:15:21.428Z,8.53
2017-08-03T14:17:49.707Z,8.30
2017-08-03T14:20:17.947Z,8.50
2017-08-03T14:22:46.612Z,8.57
2017-08-03T14:25:15.091Z,9.00
2017-08-03T14:27:43.332Z,8.67
2017-08-03T14:30:11.811Z,8.10
2017-08-03T14:32:40.084Z,8.53
2017-08-03T14:35:08.363Z,8.93
2017-08-03T14:37:36.633Z,8.20
2017-08-03T14:40:05.071Z,8.17
2017-08-03T14:42:33.301Z,8.60
2017-08-03T14:45:01.864Z,8.03
2017-08-03T14:47:30.123Z,8.63
2017-08-03T14:49:58.384Z,7.90
2017-08-03T14:52:26.653Z,8.30
2017-08-03T14:54:55.329Z,8.50
2017-08-03T14:57:23.586Z,8.07
2017-08-03T14:59:51.840Z,8.50
2017-08-03T15:02:20.328Z,9.10
2017-08-03T15:04:48.637Z,8.40
2017-08-03T15:07:17.121Z,9.27
2017-08-03T15:09:45.393Z,8.80
2017-08-03T15:12:14.015Z,7.80
2017-08-03T15:14:42.296Z,9.40
2017-08-03T15:17:10.552Z,8.57
2017-08-03T15:19:38.835Z,8.50
2017-08-03T15:22:07.118Z,9.27
2017-08-03T15:24:35.354Z,9.53
2017-08-03T15:27:04.784Z,9.10
2017-08-03T15:29:33.093Z,8.60
2017-08-03T15:32:01.360Z,9.60
2017-08-03T15:34:29.680Z,9.50
2017-08-03T15:36:57.945Z,9.40
2017-08-03T15:39:26.192Z,9.43
2017-08-03T15:41:54.465Z,10.80
2017-08-03T15:44:22.723Z,10.50
2017-08-03T15:46:51.235Z,11.70
2017-08-03T15:49:19.850Z,9.43
2017-08-03T15:51:48.466Z,7.33
2017-08-03T15:54:17.331Z,5.40
2017-08-03T15:56:45.695Z,5.20
2017-08-03T15:59:14.861Z,4.77
2017-08-03T16:01:43.154Z,4.10
2017-08-03T16:04:11.416Z,4.03
2017-08-03T16:06:39.828Z,4.07
2017-08-03T16:09:08.156Z,4.27
2017-08-03T16:11:36.413Z,3.90
2017-08-03T16:14:06.097Z,4.53
2017-08-03T16:16:34.420Z,4.00
2017-08-03T16:19:02.692Z,4.07
2017-08-03T16:21:30.953Z,4.20
2017-08-03T16:23:59.627Z,5.03
2017-08-03T16:26:27.895Z,5.20
2017-08-03T16:28:56.180Z,5.60
2017-08-03T16:31:24.468Z,5.63
2017-08-03T16:33:52.758Z,6.10
2017-08-03T16:36:21.915Z,6.60
2017-08-03T16:38:50.337Z,5.90
2017-08-03T16:41:19.435Z,6.03
2017-08-03T16:43:47.964Z,7.50
2017-08-03T16:46:16.196Z,7.40
2017-08-03T16:48:44.459Z,6.90
2017-08-03T16:51:13.195Z,6.90
2017-08-03T16:53:41.472Z,7.20
2017-08-03T16:56:09.788Z,7.60
2017-08-03T16:58:39.334Z,7.67
2017-08-03T17:01:08.615Z,7.57
2017-08-03T17:03:37.001Z,7.67
2017-08-03T17:06:05.736Z,8.17
2017-08-03T17:08:34.764Z,8.00
2017-08-03T17:11:03.512Z,8.90
2017-08-03T17:13:32.248Z,8.33
2017-08-03T17:16:01.858Z,8.23
2017-08-03T17:18:35.313Z,8.60
2017-08-03T17:21:05.106Z,8.00
2017-08-03T17:23:34.479Z,8.20
2017-08-03T17:26:03.326Z,8.67
2017-08-03T17:28:33.642Z,8.00
2017-08-03T17:31:02.404Z,8.03
2017-08-03T17:33:31.201Z,8.60
2017-08-03T17:35:59.731Z,8.90
2017-08-03T17:38:28.399Z,8.40
2017-08-03T17:40:57.282Z,8.40
2017-08-03T17:43:25.801Z,8.33
2017-08-03T17:45:54.211Z,8.90
2017-08-03T17:48:22.724Z,8.87
2017-08-03T17:50:53.157Z,8.67
2017-08-03T17:53:21.598Z,8.37
2017-08-03T17:55:49.869Z,8.50
2017-08-03T17:58:18.406Z,8.60
2017-08-03T18:00:46.764Z,8.70
2017-08-03T18:03:15.056Z,8.80
2017-08-03T18:05:43.943Z,9.03
2017-08-03T18:08:13.450Z,9.87
2017-08-03T18:10:42.382Z,9.97
2017-08-03T18:13:11.604Z,9.07
2017-08-03T18:15:46.742Z,10.00
2017-08-03T18:18:15.999Z,9.70
2017-08-03T18:20:44.349Z,9.47
2017-08-03T18:23:13.028Z,9.30
2017-08-03T18:25:42.032Z,8.13
2017-08-03T18:28:11.155Z,8.17
2017-08-03T18:33:40.164Z,8.13
2017-08-03T18:36:08.836Z,8.90
2017-08-03T18:38:37.580Z,8.03
2017-08-03T18:41:07.928Z,8.57
2017-08-03T18:43:36.685Z,8.10
2017-08-03T18:46:05.601Z,8.50
2017-08-03T18:48:35.329Z,8.63
2017-08-03T18:51:04.111Z,7.87
2017-08-03T18:53:32.435Z,7.50
2017-08-03T18:56:03.950Z,7.00
2017-08-03T18:58:32.565Z,7.40
2017-08-03T19:01:00.821Z,7.37
2017-08-03T19:03:29.131Z,8.07
2017-08-03T19:05:58.346Z,7.47
2017-08-03T19:08:26.890Z,7.80
2017-08-03T19:10:55.573Z,7.40
2017-08-03T19:13:25.035Z,9.70
2017-08-03T19:15:54.130Z,8.70
2017-08-03T19:18:22.555Z,7.37
2017-08-03T19:20:51.159Z,6.70
2017-08-03T19:23:21.021Z,6.90
2017-08-03T19:25:49.595Z,6.17
2017-08-03T19:28:17.851Z,6.90
2017-08-03T19:30:46.088Z,6.20
2017-08-03T19:33:14.417Z,5.77
2017-08-03T19:35:42.713Z,6.10
2017-08-03T19:38:11.001Z,6.17
2017-08-03T19:40:39.289Z,5.73
2017-08-03T19:43:07.531Z,5.30
2017-08-03T19:45:35.779Z,5.30
2017-08-03T19:48:04.132Z,5.47
2017-08-03T19:50:32.368Z,5.03
2017-08-03T19:53:00.641Z,4.90
2017-08-03T19:55:29.330Z,4.63
2017-08-03T19:57:57.581Z,5.17
2017-08-03T20:00:25.820Z,6.70
2017-08-03T20:02:54.089Z,5.20
2017-08-03T20:05:22.391Z,5.20
2017-08-03T20:07:54.946Z,4.70
2017-08-03T20:10:24.047Z,4.93
2017-08-03T20:12:54.047Z,4.10
2017-08-03T20:15:23.633Z,3.90
2017-08-03T20:17:52.201Z,3.90
2017-08-03T20:20:20.504Z,3.70
2017-08-03T20:22:48.806Z,3.90
2017-08-03T20:25:17.063Z,3.70
2017-08-03T20:27:47.625Z,3.30
2017-08-03T20:30:16.524Z,3.10
2017-08-03T20:32:44.801Z,3.17
2017-08-03T20:35:13.652Z,2.83
2017-08-03T20:37:42.454Z,2.90
2017-08-03T20:40:11.193Z,5.87
2017-08-03T20:42:39.778Z,3.70
2017-08-03T20:45:09.064Z,3.10
2017-08-03T20:47:38.097Z,4.20
2017-08-03T20:50:07.549Z,3.00
2017-08-03T20:52:36.344Z,2.60
2017-08-03T20:55:04.611Z,2.83
2017-08-03T20:57:32.841Z,2.60
2017-08-03T21:00:01.190Z,3.27
2017-08-03T21:02:29.495Z,4.27
2017-08-03T21:04:57.738Z,20.40
2017-08-03T21:07:26.393Z,6.00
2017-08-03T21:09:54.650Z,3.67
2017-08-03T21:12:22.886Z,3.80
2017-08-03T21:14:52.088Z,3.33
2017-08-03T21:17:20.329Z,2.93
2017-08-03T21:19:48.564Z,3.20
2017-08-03T21:22:16.815Z,2.80
2017-08-03T21:24:45.073Z,2.87
2017-08-03T21:27:13.635Z,2.77
2017-08-03T21:29:43.045Z,4.23
2017-08-03T21:32:11.954Z,8.20
2017-08-03T21:34:41.147Z,4.37
2017-08-03T21:37:10.238Z,3.67
2017-08-03T21:39:39.444Z,4.47
2017-08-03T21:42:08.081Z,3.60
2017-08-03T21:44:36.544Z,3.60
2017-08-03T21:47:06.212Z,3.33
2017-08-03T21:49:35.498Z,5.13
2017-08-03T21:52:05.208Z,3.17
2017-08-03T21:54:35.643Z,3.30
2017-08-03T21:57:05.122Z,3.73
2017-08-03T21:59:33.721Z,3.27
2017-08-03T22:02:02.275Z,3.10
2017-08-03T22:04:30.862Z,3.17
2017-08-03T22:06:59.223Z,3.30
2017-08-03T22:09:27.503Z,3.60
2017-08-03T22:11:55.790Z,3.53
2017-08-03T22:14:24.025Z,3.60
2017-08-03T22:16:52.347Z,3.50
2017-08-03T22:19:20.845Z,3.37
2017-08-03T22:21:49.079Z,3.60
2017-08-03T22:24:17.320Z,3.70
2017-08-03T22:26:46.009Z,3.97
2017-08-03T22:29:14.372Z,3.40
2017-08-03T22:31:43.013Z,3.40
2017-08-03T22:34:11.298Z,3.30
2017-08-03T22:36:39.815Z,3.20
2017-08-03T22:39:08.040Z,3.67
2017-08-03T22:41:36.528Z,3.47
2017-08-03T22:44:04.756Z,3.20
2017-08-03T22:46:33.407Z,3.13
2017-08-03T22:49:01.656Z,3.00
2017-08-03T22:51:29.904Z,3.37
2017-08-03T22:53:58.128Z,3.60
2017-08-03T22:56:26.825Z,4.00
2017-08-03T22:58:55.079Z,3.37
2017-08-03T23:01:23.301Z,3.50
2017-08-03T23:03:51.974Z,3.60
2017-08-03T23:06:20.203Z,3.70
2017-08-03T23:08:48.432Z,3.90
2017-08-03T23:11:17.108Z,3.53
2017-08-03T23:13:45.336Z,3.27
2017-08-03T23:16:13.567Z,3.17
2017-08-03T23:18:42.501Z,3.00
2017-08-03T23:21:10.741Z,3.67
2017-08-03T23:23:39.400Z,3.13
2017-08-03T23:26:07.882Z,2.97
2017-08-03T23:28:36.108Z,2.93
2017-08-03T23:31:04.335Z,3.70
2017-08-03T23:33:32.918Z,3.50
2017-08-03T23:36:01.135Z,3.40
2017-08-03T23:38:38.065Z,4.10
2017-08-03T23:41:07.780Z,3.53
2017-08-03T23:43:36.004Z,3.20
2017-08-03T23:46:04.262Z,3.20
2017-08-03T23:48:32.484Z,3.17
2017-08-03T23:51:00.719Z,3.27
2017-08-03T23:53:28.984Z,3.73
2017-08-03T23:55:57.605Z,3.50
2017-08-03T23:58:25.831Z,3.67
